Time;durP1;ratioP1;P1;durP2;ratioP2;P2;SDS_P1;SDS_P2;PMS_P1;PMS_P2;Temp;Humidity;BMP_temperature;BMP_pressure;BME280_temperature;BME280_humidity;BME280_pressure;Samples;Min_cycle;Max_cycle;Signal;HPM_P1;HPM_P2
2023/09/13 00:02:15;;;;;;;3.38;2.72;;;;;;;24.18;61.51;101221.03;5114387;28;20074;-74
2023/09/13 00:04:41;;;;;;;3.53;2.60;;;;;;;24.07;62.13;101202.53;5111420;28;20015;-74
2023/09/13 00:07:06;;;;;;;2.95;2.53;;;;;;;24.01;61.41;101193.31;5106222;28;20032;-74
2023/09/13 00:09:32;;;;;;;2.80;2.38;;;;;;;24.13;61.61;101212.63;5107216;28;20093;-74
2023/09/13 00:11:57;;;;;;;3.20;2.42;;;;;;;24.17;61.74;101222.03;5110016;28;20027;-74
2023/09/13 00:14:22;;;;;;;2.72;2.38;;;;;;;24.17;61.52;101224.75;5114002;27;20028;-74
2023/09/13 00:16:50;;;;;;;2.10;1.90;;;;;;;24.02;61.46;101205.84;5110031;28;20031;-74
2023/09/13 00:19:16;;;;;;;2.15;1.95;;;;;;;24.16;61.72;101229.34;5110662;28;20102;-74
2023/09/13 00:21:42;;;;;;;4.25;3.03;;;;;;;24.17;61.83;101230.19;5109041;28;20027;-74
2023/09/13 00:24:08;;;;;;;2.95;2.28;;;;;;;24.16;61.65;101231.25;5120418;28;20031;-74
2023/09/13 00:26:34;;;;;;;2.05;1.85;;;;;;;24.04;61.77;101208.34;5110490;28;20024;-74
2023/09/13 00:28:59;;;;;;;2.30;1.88;;;;;;;24.08;61.48;101213.19;5116077;28;20032;-74
2023/09/13 00:31:24;;;;;;;2.88;2.30;;;;;;;24.06;61.72;101212.56;5108821;28;20027;-74
2023/09/13 00:33:50;;;;;;;3.03;2.38;;;;;;;23.93;61.70;101197.00;5111203;28;20024;-74
2023/09/13 00:36:15;;;;;;;4.63;2.72;;;;;;;24.14;61.77;101230.59;5109363;28;20023;-74
2023/09/13 00:38:40;;;;;;;4.05;2.50;;;;;;;24.05;61.79;101215.50;5111208;28;20031;-74
2023/09/13 00:41:05;;;;;;;2.40;2.20;;;;;;;24.14;61.51;101219.75;5114792;28;20123;-74
2023/09/13 00:43:31;;;;;;;2.60;2.20;;;;;;;24.12;61.50;101233.50;5101718;28;20090;-74
2023/09/13 00:45:56;;;;;;;3.30;2.40;;;;;;;24.14;61.67;101230.59;5111090;28;20093;-74
2023/09/13 00:48:23;;;;;;;2.75;2.17;;;;;;;23.94;61.61;101206.81;5112494;28;20019;-74
2023/09/13 00:50:48;;;;;;;2.53;2.30;;;;;;;24.04;61.72;101208.34;5110844;28;20020;-74
2023/09/13 00:53:14;;;;;;;2.60;2.22;;;;;;;23.91;61.65;101185.47;5110689;28;20034;-74
2023/09/13 00:55:40;;;;;;;2.92;2.33;;;;;;;24.12;61.56;101230.78;5111959;28;20028;-74
2023/09/13 00:58:06;;;;;;;3.33;2.33;;;;;;;24.12;61.62;101222.63;5109391;28;20076;-74
2023/09/13 01:00:32;;;;;;;2.38;2.17;;;;;;;23.96;61.79;101201.22;5112993;28;20035;-74
2023/09/13 01:02:58;;;;;;;2.58;2.25;;;;;;;24.09;61.58;101223.06;5113091;28;20033;-74
2023/09/13 01:05:24;;;;;;;2.50;2.25;;;;;;;24.11;61.57;101217.41;5107674;28;20031;-74
2023/09/13 01:07:49;;;;;;;2.25;2.05;;;;;;;24.10;61.67;101221.16;5114690;28;20095;-74
2023/09/13 01:10:15;;;;;;;2.92;2.30;;;;;;;24.00;61.66;101207.06;5114126;28;20488;-74
2023/09/13 01:12:40;;;;;;;3.38;2.50;;;;;;;24.10;61.70;101213.84;5106926;28;20039;-74
2023/09/13 01:15:07;;;;;;;2.30;2.03;;;;;;;24.10;61.66;101211.13;5116967;28;20024;-74
2023/09/13 01:17:50;;;;;;;3.25;2.42;;;;;;;24.10;61.65;101210.31;5113981;28;20024;-74
2023/09/13 01:20:30;;;;;;;2.92;2.47;;;;;;;24.06;61.73;101207.13;5121737;28;20024;-74
2023/09/13 01:23:34;;;;;;;2.22;2.03;;;;;;;24.09;61.71;101222.22;5116998;28;20016;-74
2023/09/13 01:26:15;;;;;;;2.55;2.20;;;;;;;23.94;61.53;101209.53;5113073;28;20058;-74
2023/09/13 01:28:46;;;;;;;2.92;2.28;;;;;;;24.07;61.50;101224.25;5119473;28;20573;-74
2023/09/13 01:31:14;;;;;;;3.30;2.10;;;;;;;24.00;61.55;101216.06;5119062;28;20027;-74
2023/09/13 01:33:39;;;;;;;2.72;2.38;;;;;;;24.06;61.55;101223.44;5107729;28;20028;-74
2023/09/13 01:36:05;;;;;;;3.15;2.10;;;;;;;24.05;61.48;101220.91;5117797;27;20506;-74
2023/09/13 01:38:30;;;;;;;2.67;2.35;;;;;;;23.91;61.23;101206.34;5104537;28;20036;-74
2023/09/13 01:41:02;;;;;;;3.17;2.35;;;;;;;24.03;61.47;101214.81;5106017;28;20023;-74
2023/09/13 01:43:28;;;;;;;2.53;2.13;;;;;;;24.06;61.45;101219.88;5118138;28;20051;-74
2023/09/13 01:45:53;;;;;;;2.70;2.40;;;;;;;23.75;61.55;101176.78;5104132;28;20023;-74
2023/09/13 01:48:20;;;;;;;2.97;2.50;;;;;;;24.00;61.30;101220.63;5112012;28;20023;-74
2023/09/13 01:50:46;;;;;;;3.25;2.42;;;;;;;24.07;61.48;101224.25;5115490;28;20031;-74
2023/09/13 01:53:11;;;;;;;2.63;2.08;;;;;;;23.67;61.18;101164.16;5109080;28;20027;-74
2023/09/13 01:55:36;;;;;;;2.30;2.10;;;;;;;24.05;61.26;101223.63;5112880;28;20027;-74
2023/09/13 01:58:02;;;;;;;2.78;2.28;;;;;;;23.88;61.04;101207.59;5115626;28;20041;-74
2023/09/13 02:00:27;;;;;;;2.15;1.90;;;;;;;24.06;61.31;101231.59;5107797;28;20389;-74
2023/09/13 02:02:53;;;;;;;2.97;2.45;;;;;;;24.06;61.34;101231.59;5118040;28;20381;-74
2023/09/13 02:05:18;;;;;;;2.65;2.30;;;;;;;23.92;61.26;101213.50;5113791;28;20029;-74
2023/09/13 02:07:43;;;;;;;2.30;1.85;;;;;;;24.00;61.21;101224.22;5106967;28;20114;-74
2023/09/13 02:10:08;;;;;;;3.25;2.22;;;;;;;23.84;61.17;101191.91;5116560;28;20024;-74
2023/09/13 02:12:34;;;;;;;2.35;2.15;;;;;;;24.00;61.40;101218.78;5112068;28;20024;-74
2023/09/13 02:14:59;;;;;;;2.65;2.13;;;;;;;24.05;61.11;101229.91;5115511;27;20735;-74
2023/09/13 02:17:24;;;;;;;2.15;1.95;;;;;;;24.06;61.24;101228.88;5103422;28;20028;-73
2023/09/13 02:19:50;;;;;;;2.38;1.83;;;;;;;24.06;61.22;101233.47;5110688;28;20465;-74
2023/09/13 02:22:16;;;;;;;2.83;2.25;;;;;;;23.86;61.33;101206.09;5107488;28;20028;-74
2023/09/13 02:24:42;;;;;;;2.47;1.75;;;;;;;24.06;61.16;101241.59;5103782;28;20051;-74
2023/09/13 02:27:07;;;;;;;2.50;2.13;;;;;;;24.01;61.09;101235.94;5104354;28;20059;-74
2023/09/13 02:29:32;;;;;;;2.42;1.92;;;;;;;24.05;61.06;101251.63;5107658;28;20024;-74
2023/09/13 02:31:58;;;;;;;2.70;2.00;;;;;;;23.88;61.03;101221.19;5106222;28;20056;-74
2023/09/13 02:34:23;;;;;;;2.70;2.13;;;;;;;23.84;60.98;101216.34;5101266;28;20028;-74
2023/09/13 02:36:49;;;;;;;2.42;1.90;;;;;;;24.05;61.02;101248.09;5107202;28;20028;-74
2023/09/13 02:39:42;;;;;;;2.20;2.00;;;;;;;24.04;61.15;101247.22;5105742;28;20034;-74
2023/09/13 02:42:08;;;;;;;2.30;1.85;;;;;;;23.99;61.25;101235.25;5106434;28;20359;-74
2023/09/13 02:44:34;;;;;;;2.75;1.73;;;;;;;24.04;61.01;101243.66;5110372;28;20568;-74
2023/09/13 02:47:00;;;;;;;1.92;1.70;;;;;;;24.04;61.00;101243.66;5107034;28;20030;-74
2023/09/13 02:49:25;;;;;;;2.58;2.38;;;;;;;24.03;61.02;101242.81;5108010;28;20091;-74
2023/09/13 02:51:51;;;;;;;2.17;1.98;;;;;;;24.01;60.98;101242.19;5111347;28;20381;-74
2023/09/13 02:54:17;;;;;;;2.50;1.95;;;;;;;24.04;61.07;101243.66;5107692;28;20084;-74
2023/09/13 02:56:44;;;;;;;2.40;1.92;;;;;;;23.90;61.08;101224.53;5107655;28;20103;-74
2023/09/13 02:59:09;;;;;;;2.67;2.33;;;;;;;24.03;61.11;101240.09;5102995;28;20036;-74
2023/09/13 03:01:34;;;;;;;2.22;2.00;;;;;;;24.02;61.06;101243.88;5109149;28;20028;-74
2023/09/13 03:04:00;;;;;;;3.25;2.15;;;;;;;24.02;61.08;101238.44;5109348;28;20039;-74
2023/09/13 03:06:25;;;;;;;3.28;2.00;;;;;;;24.02;60.96;101243.03;5110634;28;20028;-74
2023/09/13 03:08:50;;;;;;;2.53;1.95;;;;;;;24.02;61.09;101243.03;5107108;28;20044;-74
2023/09/13 03:11:18;;;;;;;2.30;2.10;;;;;;;23.83;60.82;101212.78;5111313;28;20039;-74
2023/09/13 03:13:44;;;;;;;2.33;1.83;;;;;;;23.96;61.01;101233.78;5111596;28;20019;-74
2023/09/13 03:16:18;;;;;;;2.50;2.08;;;;;;;24.02;60.96;101249.31;5107883;28;20035;-74
2023/09/13 03:18:44;;;;;;;2.72;2.28;;;;;;;24.01;60.73;101244.91;5112803;28;20024;-74
2023/09/13 03:21:11;;;;;;;2.40;2.03;;;;;;;24.01;60.90;101250.34;5110883;28;20051;-74
2023/09/13 03:23:44;;;;;;;2.30;2.10;;;;;;;24.01;60.94;101250.34;5114903;28;20031;-74
2023/09/13 03:26:24;;;;;;;2.13;1.92;;;;;;;23.83;60.84;101226.34;5116689;28;20049;-74
2023/09/13 03:28:51;;;;;;;3.00;1.92;;;;;;;23.86;60.89;101225.94;5109839;28;20016;-74
2023/09/13 03:31:22;;;;;;;2.17;1.92;;;;;;;23.95;60.93;101242.94;5109196;28;20027;-74
2023/09/13 03:33:49;;;;;;;2.22;1.80;;;;;;;24.00;60.72;101250.50;5113228;28;20051;-74
2023/09/13 03:36:15;;;;;;;2.05;1.80;;;;;;;24.00;60.73;101254.09;5106592;28;20016;-74
2023/09/13 03:38:42;;;;;;;3.30;2.30;;;;;;;23.93;60.94;101232.28;5113403;28;20027;-74
2023/09/13 03:41:11;;;;;;;2.65;1.75;;;;;;;24.00;60.78;101242.38;5110607;28;20095;-74
2023/09/13 03:43:37;;;;;;;2.42;2.05;;;;;;;23.86;60.69;101223.22;5107634;28;20091;-74
2023/09/13 03:46:04;;;;;;;1.92;1.70;;;;;;;23.99;60.75;101249.69;5114501;28;20051;-74
2023/09/13 03:48:34;;;;;;;2.75;1.88;;;;;;;24.00;60.79;101247.81;5112568;28;20028;-74
2023/09/13 03:50:59;;;;;;;2.60;2.00;;;;;;;24.00;60.80;101240.53;5109192;28;20515;-74
2023/09/13 03:53:25;;;;;;;2.38;1.88;;;;;;;23.70;60.83;101199.03;5119968;28;20039;-74
2023/09/13 03:55:51;;;;;;;2.08;1.88;;;;;;;23.99;60.72;101249.69;5118567;28;20024;-74
2023/09/13 03:58:16;;;;;;;1.95;1.75;;;;;;;23.85;60.75;101220.72;5111874;28;20737;-74
2023/09/13 04:00:42;;;;;;;1.80;1.52;;;;;;;23.92;60.63;101232.50;5118924;28;20039;-74
2023/09/13 04:03:07;;;;;;;2.10;1.90;;;;;;;23.95;60.79;101232.94;5111899;28;20019;-74
2023/09/13 04:05:32;;;;;;;2.25;1.92;;;;;;;23.88;60.66;101213.03;5114650;28;20026;-74
2023/09/13 04:07:58;;;;;;;2.42;2.00;;;;;;;23.85;60.60;101207.97;5118087;28;20069;-74
2023/09/13 04:10:23;;;;;;;2.60;1.88;;;;;;;23.98;60.72;101220.84;5111339;28;20042;-74
2023/09/13 04:12:49;;;;;;;2.47;2.03;;;;;;;23.97;60.66;101224.59;5112260;28;20461;-74
2023/09/13 04:15:15;;;;;;;2.25;1.77;;;;;;;23.77;60.61;101194.53;5126239;27;20103;-74
2023/09/13 04:17:40;;;;;;;2.30;1.83;;;;;;;23.91;60.39;101209.06;5111082;28;20083;-74
2023/09/13 04:20:06;;;;;;;2.70;2.03;;;;;;;23.97;60.64;101212.91;5117990;28;20034;-74
2023/09/13 04:22:31;;;;;;;2.58;1.90;;;;;;;23.86;60.49;101193.38;5114179;28;20019;-74
2023/09/13 04:24:57;;;;;;;3.08;2.10;;;;;;;23.75;60.46;101174.06;5108113;28;20024;-74
2023/09/13 04:27:23;;;;;;;2.75;2.33;;;;;;;23.92;60.55;101202.63;5118377;28;20035;-74
2023/09/13 04:29:48;;;;;;;2.92;2.08;;;;;;;23.94;60.69;101205.97;5112585;28;20030;-74
2023/09/13 04:32:14;;;;;;;2.50;1.80;;;;;;;23.96;60.60;101217.50;5109530;28;20023;-74
2023/09/13 04:34:39;;;;;;;2.03;1.80;;;;;;;23.91;60.52;101215.34;5105062;28;20056;-74
2023/09/13 04:37:05;;;;;;;1.92;1.73;;;;;;;23.84;60.45;101189.19;5105986;28;20613;-74
2023/09/13 04:39:34;;;;;;;1.73;1.63;;;;;;;23.95;60.54;101218.50;5110926;28;20023;-74
2023/09/13 04:41:59;;;;;;;2.28;2.00;;;;;;;23.95;60.42;101213.91;5106902;28;20161;-73
2023/09/13 04:44:25;;;;;;;2.35;2.15;;;;;;;23.92;60.50;101208.91;5108220;28;20020;-74
2023/09/13 04:46:52;;;;;;;2.20;2.00;;;;;;;23.95;60.52;101218.50;5109325;28;20028;-74
2023/09/13 04:49:17;;;;;;;2.03;1.77;;;;;;;23.93;60.43;101202.41;5105597;28;20044;-74
2023/09/13 04:51:42;;;;;;;2.55;2.28;;;;;;;23.89;60.52;101205.72;5091903;28;20028;-74
2023/09/13 04:54:07;;;;;;;1.90;1.73;;;;;;;23.76;60.13;101187.44;5111457;28;20106;-74
2023/09/13 04:56:33;;;;;;;2.40;2.20;;;;;;;23.89;60.39;101209.28;5109871;28;20027;-74
2023/09/13 04:58:58;;;;;;;2.55;2.03;;;;;;;23.93;60.38;101213.28;5107793;28;20097;-74
2023/09/13 05:01:23;;;;;;;2.35;2.00;;;;;;;23.78;60.28;101193.50;5110075;28;20052;-74
2023/09/13 05:03:49;;;;;;;2.90;2.17;;;;;;;23.93;60.28;101213.28;5116332;28;20020;-74
2023/09/13 05:06:15;;;;;;;2.42;2.00;;;;;;;23.92;60.39;101219.75;5105572;28;20469;-74
2023/09/13 05:08:41;;;;;;;2.83;2.10;;;;;;;23.91;60.46;101223.47;5112751;28;20104;-74
2023/09/13 05:11:06;;;;;;;3.95;2.30;;;;;;;23.89;60.31;101222.84;5119259;28;20071;-74
2023/09/13 05:13:32;;;;;;;2.40;2.20;;;;;;;23.91;60.39;101226.19;5109826;27;20024;-74
2023/09/13 05:15:57;;;;;;;2.17;1.98;;;;;;;23.92;60.27;101233.34;5113460;28;20023;-74
2023/09/13 05:18:23;;;;;;;2.80;2.20;;;;;;;23.84;60.35;101203.59;5111522;28;20020;-74
2023/09/13 05:20:48;;;;;;;2.70;2.20;;;;;;;23.92;60.28;101229.78;5109176;28;20027;-74
2023/09/13 05:23:13;;;;;;;2.53;2.25;;;;;;;23.65;60.08;101188.78;5111984;28;20026;-74
2023/09/13 05:25:44;;;;;;;2.80;2.45;;;;;;;23.71;60.41;101195.31;5110219;28;20088;-74
2023/09/13 05:28:09;;;;;;;2.80;2.40;;;;;;;23.77;60.30;101205.41;5111527;28;20020;-74
2023/09/13 05:30:34;;;;;;;2.95;2.58;;;;;;;23.75;60.21;101209.34;5112916;28;20034;-74
2023/09/13 05:32:59;;;;;;;2.67;2.47;;;;;;;23.76;60.37;101208.31;5109087;28;20562;-74
2023/09/13 05:35:25;;;;;;;2.85;2.28;;;;;;;23.85;60.29;101224.28;5112982;28;20035;-74
2023/09/13 05:37:50;;;;;;;3.85;2.25;;;;;;;23.91;60.21;101230.78;5113652;28;20035;-74
2023/09/13 05:40:15;;;;;;;2.63;2.42;;;;;;;23.75;60.26;101215.63;5108851;28;20024;-74
2023/09/13 05:42:41;;;;;;;2.50;2.17;;;;;;;23.90;60.34;101229.13;5115599;28;20024;-74
2023/09/13 05:45:07;;;;;;;2.50;2.30;;;;;;;23.90;60.39;101237.28;5112608;28;20032;-74
2023/09/13 05:47:32;;;;;;;3.15;2.42;;;;;;;23.74;60.39;101215.78;5106128;28;20087;-74
2023/09/13 05:49:58;;;;;;;2.67;2.35;;;;;;;23.75;59.87;101231.91;5099438;28;20077;-74
2023/09/13 05:52:23;;;;;;;3.97;3.33;;;;;;;23.88;60.47;101248.34;5115251;28;20028;-74
2023/09/13 05:54:48;;;;;;;3.00;2.70;;;;;;;23.75;60.25;101229.19;5107732;28;20034;-74
2023/09/13 05:57:14;;;;;;;3.50;2.17;;;;;;;23.75;60.14;101226.47;5117812;28;20054;-74
2023/09/13 05:59:39;;;;;;;2.85;2.42;;;;;;;23.63;60.53;101214.41;5116391;28;20023;-74
2023/09/13 06:02:06;;;;;;;2.50;2.20;;;;;;;23.79;60.44;101245.91;5110131;28;20574;-74
2023/09/13 06:04:32;;;;;;;3.00;2.40;;;;;;;23.57;60.03;101212.44;5120581;28;20441;-74
2023/09/13 06:06:57;;;;;;;3.17;2.55;;;;;;;23.88;60.06;101267.34;5113493;28;20043;-74
2023/09/13 06:09:22;;;;;;;3.60;2.53;;;;;;;23.74;60.36;101256.53;5112378;28;20043;-74
2023/09/13 06:11:48;;;;;;;3.33;2.60;;;;;;;23.88;60.29;101282.81;5116357;28;20037;-74
2023/09/13 06:14:13;;;;;;;3.42;2.72;;;;;;;23.76;60.34;101273.47;5115880;27;20031;-74
2023/09/13 06:16:39;;;;;;;3.00;2.70;;;;;;;23.54;60.17;101226.44;5119034;28;20027;-74
2023/09/13 06:19:04;;;;;;;3.90;2.58;;;;;;;23.75;60.47;101298.94;5117040;28;20020;-74
2023/09/13 06:21:29;;;;;;;2.55;2.35;;;;;;;23.72;60.27;101307.47;5107028;28;20026;-74
2023/09/13 06:23:54;;;;;;;2.45;2.25;;;;;;;23.83;60.42;101339.53;5113692;28;20023;-74
2023/09/13 06:26:20;;;;;;;2.38;2.05;;;;;;;23.75;60.14;101336.97;5103583;28;20434;-74
2023/09/13 06:28:45;;;;;;;2.72;2.20;;;;;;;23.61;60.19;101336.75;5106488;28;20016;-74
2023/09/13 06:31:11;;;;;;;2.78;2.40;;;;;;;23.71;60.14;101360.09;5114791;28;20038;-74
2023/09/13 06:33:36;;;;;;;3.30;2.25;;;;;;;23.74;59.90;101376.81;5111332;28;20016;-74
2023/09/13 06:36:02;;;;;;;2.47;2.17;;;;;;;23.73;60.39;101388.72;5104872;28;20011;-74
2023/09/13 06:38:27;;;;;;;2.42;1.80;;;;;;;23.84;59.91;101418.13;5118366;28;20389;-74
2023/09/13 06:40:52;;;;;;;3.45;2.10;;;;;;;23.64;59.88;101404.25;5110916;28;20031;-74
2023/09/13 06:43:18;;;;;;;2.15;1.80;;;;;;;23.62;59.73;101387.31;5120620;28;20034;-74
2023/09/13 06:45:45;;;;;;;2.50;1.80;;;;;;;23.84;59.81;101433.56;5102852;28;20042;-74
2023/09/13 06:48:11;;;;;;;3.70;2.38;;;;;;;23.74;59.79;101417.53;5104478;28;20034;-74
2023/09/13 06:50:36;;;;;;;2.42;1.60;;;;;;;23.66;59.53;101421.22;5108067;28;20040;-74
2023/09/13 06:53:02;;;;;;;1.92;1.75;;;;;;;23.82;59.71;101447.31;5121679;28;20035;-74
2023/09/13 06:55:27;;;;;;;1.75;1.45;;;;;;;23.70;59.54;101435.25;5106967;28;20035;-74
2023/09/13 06:57:53;;;;;;;2.08;1.60;;;;;;;23.56;59.51;101430.63;5107287;28;20020;-74
2023/09/13 07:00:18;;;;;;;2.20;1.50;;;;;;;23.81;59.67;101470.09;5105141;28;20035;-74
2023/09/13 07:02:44;;;;;;;2.10;1.40;;;;;;;23.82;59.66;101487.22;5106247;28;20032;-74
2023/09/13 07:05:09;;;;;;;2.05;1.85;;;;;;;23.58;59.37;101447.59;5109491;28;20020;-74
2023/09/13 07:07:34;;;;;;;1.52;1.40;;;;;;;23.73;59.47;101475.59;5105911;28;20439;-74
2023/09/13 07:10:00;;;;;;;2.20;1.45;;;;;;;23.63;59.50;101466.88;5117683;28;20020;-74
2023/09/13 07:12:25;;;;;;;1.92;1.55;;;;;;;23.58;59.36;101470.16;5109626;28;20016;-74
2023/09/13 07:14:51;;;;;;;2.47;1.85;;;;;;;23.61;59.54;101479.78;5111860;28;20050;-74
2023/09/13 07:17:18;;;;;;;2.53;1.67;;;;;;;23.67;59.61;101489.94;5107548;28;20077;-74
2023/09/13 07:19:44;;;;;;;1.40;1.30;;;;;;;23.75;59.32;101511.56;5110295;28;20476;-74
2023/09/13 07:22:09;;;;;;;2.25;1.63;;;;;;;23.67;59.27;101508.94;5101689;28;20041;-74
2023/09/13 07:24:34;;;;;;;1.80;1.42;;;;;;;23.66;59.38;101518.09;5110106;28;20028;-74
2023/09/13 07:27:00;;;;;;;1.77;1.50;;;;;;;23.58;59.24;101519.00;5107231;28;20031;-74
2023/09/13 07:29:26;;;;;;;2.00;1.50;;;;;;;23.77;59.08;101552.94;5123226;28;20024;-74
2023/09/13 07:31:51;;;;;;;1.83;1.42;;;;;;;23.62;59.11;101531.19;5112348;28;20028;-75
2023/09/13 07:34:16;;;;;;;1.48;1.25;;;;;;;23.77;59.19;101552.09;5113926;28;20028;-75
2023/09/13 07:36:41;;;;;;;1.40;1.10;;;;;;;23.59;59.12;101525.28;5110798;28;20102;-74
2023/09/13 07:39:09;;;;;;;1.52;1.20;;;;;;;23.75;59.10;101555.00;5128432;27;20115;-74
2023/09/13 07:41:34;;;;;;;2.67;1.35;;;;;;;23.75;59.15;101548.75;5104774;28;20035;-74
2023/09/13 07:44:00;;;;;;;1.40;1.10;;;;;;;23.67;59.19;101539.66;5110595;28;20052;-74
2023/09/13 07:46:25;;;;;;;2.42;1.30;;;;;;;23.74;59.02;101561.44;5117160;28;20111;-74
2023/09/13 07:48:51;;;;;;;1.52;1.23;;;;;;;23.75;59.01;101565.03;5114748;28;20115;-74
2023/09/13 07:51:16;;;;;;;1.38;1.10;;;;;;;23.61;59.01;101555.78;5112252;28;20027;-74
2023/09/13 07:53:42;;;;;;;2.33;1.30;;;;;;;23.55;59.04;101546.50;5118006;28;20101;-74
2023/09/13 07:56:07;;;;;;;1.40;1.08;;;;;;;23.73;58.80;101570.63;5115071;28;20020;-75
2023/09/13 07:58:33;;;;;;;1.30;1.15;;;;;;;23.73;59.02;101577.94;5110260;28;20023;-74
2023/09/13 08:00:58;;;;;;;1.73;1.35;;;;;;;23.31;58.99;101509.56;5121637;28;20031;-74
2023/09/13 08:03:24;;;;;;;1.83;1.15;;;;;;;23.65;58.97;101565.28;5119368;28;20024;-74
2023/09/13 08:05:49;;;;;;;2.15;1.20;;;;;;;23.43;58.98;101537.97;5110961;28;20038;-74
2023/09/13 08:08:18;;;;;;;1.38;1.10;;;;;;;23.72;58.82;101579.81;5122802;28;20097;-74
2023/09/13 08:10:43;;;;;;;1.73;1.45;;;;;;;23.47;58.79;101541.16;5112193;28;20079;-74
2023/09/13 08:13:09;;;;;;;2.40;1.25;;;;;;;23.52;58.74;101544.16;5114224;28;20042;-74
2023/09/13 08:15:34;;;;;;;1.15;0.90;;;;;;;23.72;58.78;101579.81;5104290;28;20020;-74
2023/09/13 08:18:01;;;;;;;1.77;1.13;;;;;;;23.67;58.49;101577.66;5114625;28;20532;-74
2023/09/13 08:20:26;;;;;;;1.13;0.90;;;;;;;23.48;58.76;101561.00;5115925;28;20024;-74
2023/09/13 08:22:51;;;;;;;1.60;1.08;;;;;;;23.58;58.80;101573.31;5105841;28;20165;-74
2023/09/13 08:25:17;;;;;;;1.85;0.98;;;;;;;23.73;58.53;101605.09;5109812;28;20055;-74
2023/09/13 08:27:42;;;;;;;1.60;1.10;;;;;;;23.74;58.71;101612.19;5116174;28;20083;-75
2023/09/13 08:30:08;;;;;;;1.50;1.00;;;;;;;23.70;58.60;101595.44;5117134;28;20093;-74
2023/09/13 08:32:34;;;;;;;1.55;0.75;;;;;;;23.55;58.53;101578.25;5110760;28;20020;-75
2023/09/13 08:34:59;;;;;;;1.52;0.90;;;;;;;23.50;58.51;101569.81;5119757;28;20027;-75
2023/09/13 08:37:25;;;;;;;1.40;1.20;;;;;;;23.74;58.52;101610.31;5113136;28;20027;-74
2023/09/13 08:39:51;;;;;;;1.48;1.15;;;;;;;23.71;58.72;101616.16;5106792;28;20036;-74
2023/09/13 08:42:17;;;;;;;2.13;1.00;;;;;;;23.49;58.33;101577.13;5099133;28;20023;-74
2023/09/13 08:44:44;;;;;;;1.75;1.10;;;;;;;23.47;58.37;101579.16;5111556;28;20126;-74
2023/09/13 08:47:11;;;;;;;1.77;1.50;;;;;;;23.68;58.27;101619.22;5112787;28;20098;-75
2023/09/13 08:49:38;;;;;;;1.60;1.05;;;;;;;23.69;58.36;101631.75;5101437;28;20024;-75
2023/09/13 08:52:04;;;;;;;2.80;1.00;;;;;;;23.74;58.49;101639.34;5114835;28;20024;-74
2023/09/13 08:54:29;;;;;;;1.88;0.98;;;;;;;23.27;58.46;101556.25;5108856;28;20043;-74
2023/09/13 08:56:56;;;;;;;1.20;0.88;;;;;;;23.69;58.44;101629.03;5104874;28;20024;-75
2023/09/13 08:59:21;;;;;;;2.10;1.10;;;;;;;23.57;58.57;101603.31;5098670;28;20024;-74
2023/09/13 09:01:48;;;;;;;1.13;0.80;;;;;;;23.69;58.56;101615.47;5108837;28;20393;-74
2023/09/13 09:04:15;;;;;;;2.25;1.00;;;;;;;23.55;58.52;101595.38;5103404;28;20036;-74
2023/09/13 09:06:42;;;;;;;1.50;1.00;;;;;;;23.68;58.78;101611.06;5103391;28;20052;-74
2023/09/13 09:09:08;;;;;;;1.27;0.90;;;;;;;23.74;58.89;101629.34;5109657;28;20112;-74
2023/09/13 09:11:35;;;;;;;1.40;0.85;;;;;;;23.57;59.01;101609.59;5106617;28;20031;-75
2023/09/13 09:14:02;;;;;;;1.20;0.85;;;;;;;23.69;58.81;101657.03;5111608;27;20055;-74
2023/09/13 09:16:28;;;;;;;1.10;0.80;;;;;;;23.66;59.08;101646.56;5110930;28;20020;-74
2023/09/13 09:19:00;;;;;;;2.05;1.20;;;;;;;23.56;58.85;101640.47;5107908;28;20035;-74
2023/09/13 09:21:25;;;;;;;2.50;1.10;;;;;;;23.73;59.41;101675.69;5108732;28;20039;-74
2023/09/13 09:23:52;;;;;;;1.83;0.98;;;;;;;23.73;59.40;101686.53;5108754;28;20035;-74
2023/09/13 09:26:17;;;;;;;2.20;1.00;;;;;;;23.72;58.86;101702.00;5109652;28;20031;-75
2023/09/13 09:28:43;;;;;;;1.30;0.98;;;;;;;23.51;59.19;101680.91;5109604;28;20384;-74
2023/09/13 09:31:10;;;;;;;1.75;1.00;;;;;;;23.69;59.19;101707.78;5104188;28;20049;-74
2023/09/13 09:33:38;;;;;;;1.25;0.90;;;;;;;23.74;59.22;101707.22;5110009;28;20055;-74
2023/09/13 09:36:03;;;;;;;1.23;0.88;;;;;;;23.49;59.02;101680.25;5121538;28;20016;-74
2023/09/13 09:38:30;;;;;;;1.50;0.82;;;;;;;23.73;59.29;101719.97;5110572;28;20058;-74
2023/09/13 09:40:57;;;;;;;1.08;0.80;;;;;;;23.54;59.22;101696.84;5107681;28;20036;-75
2023/09/13 09:43:23;;;;;;;1.27;0.90;;;;;;;23.62;59.16;101717.66;5112319;28;20020;-74
2023/09/13 09:45:48;;;;;;;1.17;1.00;;;;;;;23.75;59.12;101750.53;5110859;28;20076;-74
2023/09/13 09:48:14;;;;;;;1.55;1.00;;;;;;;23.74;58.97;101748.81;5107176;28;20028;-74
2023/09/13 09:50:52;;;;;;;2.55;1.23;;;;;;;23.74;58.86;101753.41;5115760;28;20028;-74
2023/09/13 09:53:17;;;;;;;1.63;0.93;;;;;;;23.74;58.95;101762.38;5114867;28;20055;-74
2023/09/13 09:55:43;;;;;;;1.63;1.10;;;;;;;23.69;59.01;101752.06;5115056;28;20012;-75
2023/09/13 09:58:09;;;;;;;2.03;1.45;;;;;;;23.61;59.03;101756.66;5120251;28;20049;-74
2023/09/13 10:00:52;;;;;;;1.80;1.00;;;;;;;23.59;59.05;101751.44;5107489;28;20020;-75
2023/09/13 10:03:17;;;;;;;1.40;1.08;;;;;;;23.76;59.11;101778.50;5121133;28;20027;-74
2023/09/13 10:05:53;;;;;;;1.33;1.00;;;;;;;23.76;59.19;101775.81;5113029;28;20038;-74
2023/09/13 10:08:18;;;;;;;1.65;0.75;;;;;;;23.75;58.98;101782.25;5102520;28;20079;-73
2023/09/13 10:10:43;;;;;;;1.65;0.90;;;;;;;23.76;58.95;101784.78;5114183;28;20023;-75
2023/09/13 10:13:13;;;;;;;1.40;0.90;;;;;;;23.76;59.03;101783.94;5112649;28;20251;-75
2023/09/13 10:15:38;;;;;;;2.10;1.10;;;;;;;23.51;58.92;101756.06;5112311;28;20118;-74
2023/09/13 10:18:05;;;;;;;1.58;1.00;;;;;;;23.76;59.21;101789.38;5120114;28;20024;-74
2023/09/13 10:20:32;;;;;;;2.33;1.10;;;;;;;23.68;59.06;101780.25;5112116;28;20031;-74
2023/09/13 10:23:00;;;;;;;1.92;1.00;;;;;;;23.65;58.97;101777.03;5108686;28;20042;-74
2023/09/13 10:25:30;;;;;;;1.23;0.90;;;;;;;23.75;59.01;101796.69;5115830;28;20451;-74
2023/09/13 10:27:56;;;;;;;1.65;0.90;;;;;;;23.75;58.88;101791.25;5109797;28;20024;-74
2023/09/13 10:30:25;;;;;;;1.40;0.93;;;;;;;23.75;58.97;101798.56;5119459;28;20032;-74
2023/09/13 10:32:56;;;;;;;2.30;1.20;;;;;;;23.54;59.20;101772.84;5115226;28;20028;-74
2023/09/13 10:35:21;;;;;;;2.25;1.48;;;;;;;23.51;58.82;101772.34;5119521;28;20028;-74
2023/09/13 10:37:59;;;;;;;1.63;1.10;;;;;;;23.74;58.79;101807.69;5098900;28;20026;-74
2023/09/13 10:40:31;;;;;;;1.80;1.10;;;;;;;23.56;58.89;101786.22;5116723;28;20031;-74
2023/09/13 10:42:57;;;;;;;1.33;1.13;;;;;;;23.61;58.84;101794.69;5102956;28;20028;-74
2023/09/13 10:45:24;;;;;;;1.83;1.02;;;;;;;23.74;58.83;101813.97;5114528;28;20106;-74
2023/09/13 10:47:50;;;;;;;2.13;0.95;;;;;;;23.50;58.95;101771.50;5113837;28;20024;-75
2023/09/13 10:50:17;;;;;;;1.45;1.00;;;;;;;23.71;59.04;101806.22;5102972;28;20024;-74
2023/09/13 10:52:43;;;;;;;1.60;0.90;;;;;;;23.69;58.85;101809.09;5116376;28;20032;-74
2023/09/13 10:55:11;;;;;;;1.42;0.90;;;;;;;23.75;58.73;101809.41;5111255;28;20461;-74
2023/09/13 10:57:37;;;;;;;1.73;0.90;;;;;;;23.51;58.89;101778.63;5106323;28;20057;-74
2023/09/13 11:00:10;;;;;;;2.78;1.20;;;;;;;23.47;58.95;101777.28;5120508;28;20548;-74
2023/09/13 11:02:36;;;;;;;1.90;0.88;;;;;;;23.52;58.79;101784.91;5113723;28;20030;-74
2023/09/13 11:05:03;;;;;;;1.88;1.20;;;;;;;23.78;58.72;101826.16;5113604;28;20047;-74
2023/09/13 11:07:28;;;;;;;1.70;0.95;;;;;;;23.63;58.47;101795.38;5115661;28;20032;-74
2023/09/13 11:10:03;;;;;;;1.85;0.93;;;;;;;23.83;58.50;101836.50;5107166;28;20028;-74
2023/09/13 11:12:28;;;;;;;2.35;1.33;;;;;;;23.60;58.43;101791.13;5110604;28;20024;-75
2023/09/13 11:14:54;;;;;;;2.00;1.00;;;;;;;23.69;58.30;101803.66;5111564;28;20539;-74
2023/09/13 11:17:37;;;;;;;3.72;1.42;;;;;;;23.55;58.08;101779.97;5106661;28;20023;-75
2023/09/13 11:20:38;;;;;;;1.45;0.90;;;;;;;23.91;58.27;101828.31;5112697;28;20131;-74
2023/09/13 11:23:14;;;;;;;2.45;1.20;;;;;;;23.94;58.03;101838.81;5109137;28;20044;-74